Time;durP1;ratioP1;P1;durP2;ratioP2;P2;SDS_P1;SDS_P2;PMS_P1;PMS_P2;Temp;Humidity;BMP_temperature;BMP_pressure;BME280_temperature;BME280_humidity;BME280_pressure;Samples;Min_cycle;Max_cycle;Signal;HPM_P1;HPM_P2
2022/07/24 00:01:28;;;;;;;;;;;;;;;;;;6031683;23;8693;-83
2022/07/24 00:03:53;;;;;;;;;;;;;;;;;;5984837;24;8422;-83
2022/07/24 00:06:19;;;;;;;;;;;;;;;;;;6031460;23;8423;-82
2022/07/24 00:08:44;;;;;;;;;;;;;;;;;;6031541;23;8454;-83
2022/07/24 00:11:10;;;;;;;;;;;;;;;;;;6031229;23;7136;-85
2022/07/24 00:13:35;;;;;;;;;;;;;;;;;;5984241;24;8439;-85
2022/07/24 00:16:01;;;;;;;;;;;;;;;;;;5984355;24;8552;-84
2022/07/24 00:18:26;;;;;;;;;;;;;;;;;;6032333;23;8458;-84
2022/07/24 00:20:52;;;;;;;;;;;;;;;;;;5984242;24;7197;-85
2022/07/24 00:23:18;;;;;;;;;;;;;;;;;;6031629;23;7100;-86
2022/07/24 00:25:43;;;;;;;;;;;;;;;;;;6031033;23;7208;-85
2022/07/24 00:28:08;;;;;;;;;;;;;;;;;;6031530;23;7009;-85
2022/07/24 00:30:34;;;;;;;;;;;;;;;;;;6032441;23;8433;-85
2022/07/24 00:32:59;;;;;;;;;;;;;;;;;;6031213;23;7208;-83
2022/07/24 00:35:25;;;;;;;;;;;;;;;;;;6031444;23;7027;-85
2022/07/24 00:37:51;;;;;;;;;;;;;;;;;;5983900;24;7230;-84
2022/07/24 00:40:16;;;;;;;;;;;;;;;;;;6030787;23;7436;-85
2022/07/24 00:42:43;;;;;;;;;;;;;;;;;;5984503;24;7128;-85
2022/07/24 00:45:10;;;;;;;;;;;;;;;;;;5983619;24;7032;-85
2022/07/24 00:47:36;;;;;;;;;;;;;;;;;;5983998;24;7135;-86
2022/07/24 00:50:04;;;;;;;;;;;;;;;;;;5984347;24;8798;-86
2022/07/24 00:52:30;;;;;;;;;;;;;;;;;;5984127;24;7208;-85
2022/07/24 00:54:56;;;;;;;;;;;;;;;;;;5983909;24;7236;-86
2022/07/24 00:57:21;;;;;;;;;;;;;;;;;;5984563;24;7018;-85
2022/07/24 00:59:47;;;;;;;;;;;;;;;;;;6030617;23;7179;-86
2022/07/24 01:02:12;;;;;;;;;;;;;;;;;;5984428;24;8447;-86
2022/07/24 01:04:39;;;;;;;;;;;;;;;;;;5983585;24;7042;-86
2022/07/24 01:07:06;;;;;;;;;;;;;;;;;;5984267;24;8406;-85
2022/07/24 01:09:32;;;;;;;;;;;;;;;;;;5983759;24;7130;-85
2022/07/24 01:11:58;;;;;;;;;;;;;;;;;;5984230;24;8411;-85
2022/07/24 01:14:25;;;;;;;;;;;;;;;;;;5983896;24;7145;-87
2022/07/24 01:16:51;;;;;;;;;;;;;;;;;;5984156;24;7019;-85
2022/07/24 01:19:16;;;;;;;;;;;;;;;;;;5984186;24;8451;-87
2022/07/24 01:21:49;;;;;;;;;;;;;;;;;;5984065;24;8377;-86
2022/07/24 01:24:15;;;;;;;;;;;;;;;;;;5983994;24;6999;-87
2022/07/24 01:26:41;;;;;;;;;;;;;;;;;;5983895;24;7189;-87
2022/07/24 01:29:07;;;;;;;;;;;;;;;;;;5983888;24;8580;-87
2022/07/24 01:31:33;;;;;;;;;;;;;;;;;;5983741;24;8439;-87
2022/07/24 01:33:58;;;;;;;;;;;;;;;;;;6031974;23;7014;-86
2022/07/24 01:36:23;;;;;;;;;;;;;;;;;;6032443;23;6994;-87
2022/07/24 01:38:49;;;;;;;;;;;;;;;;;;6032243;23;6986;-88
2022/07/24 01:41:15;;;;;;;;;;;;;;;;;;5985542;24;6978;-87
2022/07/24 01:43:41;;;;;;;;;;;;;;;;;;5985028;24;8625;-87
2022/07/24 01:46:07;;;;;;;;;;;;;;;;;;5985715;24;8668;-86
2022/07/24 01:48:33;;;;;;;;;;;;;;;;;;6032629;23;8426;-87
2022/07/24 01:50:59;;;;;;;;;;;;;;;;;;5985376;24;7140;-86
2022/07/24 01:53:24;;;;;;;;;;;;;;;;;;5985099;24;7215;-87
2022/07/24 01:55:51;;;;;;;;;;;;;;;;;;6032643;23;8486;-88
2022/07/24 01:58:17;;;;;;;;;;;;;;;;;;5985582;24;8388;-85
2022/07/24 02:00:42;;;;;;;;;;;;;;;;;;5985900;24;8280;-85
2022/07/24 02:03:08;;;;;;;;;;;;;;;;;;6032519;23;8324;-85
2022/07/24 02:05:33;;;;;;;;;;;;;;;;;;6032876;23;6995;-85
2022/07/24 02:07:59;;;;;;;;;;;;;;;;;;6032135;23;8456;-85
2022/07/24 02:10:26;;;;;;;;;;;;;;;;;;5985201;24;7018;-84
2022/07/24 02:12:52;;;;;;;;;;;;;;;;;;5985458;24;6963;-84
2022/07/24 02:15:18;;;;;;;;;;;;;;;;;;5985051;24;8657;-85
2022/07/24 02:17:47;;;;;;;;;;;;;;;;;;6032193;23;7042;-85
2022/07/24 02:20:13;;;;;;;;;;;;;;;;;;5984686;24;6798;-85
2022/07/24 02:22:39;;;;;;;;;;;;;;;;;;5985086;24;7157;-85
2022/07/24 02:25:05;;;;;;;;;;;;;;;;;;5985154;24;8339;-85
2022/07/24 02:27:31;;;;;;;;;;;;;;;;;;5985155;24;8361;-84
2022/07/24 02:29:57;;;;;;;;;;;;;;;;;;6032259;23;8581;-85
2022/07/24 02:32:22;;;;;;;;;;;;;;;;;;6032394;23;8468;-85
2022/07/24 02:34:48;;;;;;;;;;;;;;;;;;6032485;23;7208;-85
2022/07/24 02:37:13;;;;;;;;;;;;;;;;;;5985497;24;7188;-85
2022/07/24 02:39:39;;;;;;;;;;;;;;;;;;6031994;23;8290;-86
2022/07/24 02:42:04;;;;;;;;;;;;;;;;;;6032623;23;7065;-86
2022/07/24 02:44:30;;;;;;;;;;;;;;;;;;6031933;23;7034;-86
2022/07/24 02:46:55;;;;;;;;;;;;;;;;;;6032530;23;8871;-85
2022/07/24 02:49:20;;;;;;;;;;;;;;;;;;6032009;23;8568;-85
2022/07/24 02:51:46;;;;;;;;;;;;;;;;;;6031549;23;8706;-85
2022/07/24 02:54:11;;;;;;;;;;;;;;;;;;6032471;23;7119;-86
2022/07/24 02:56:37;;;;;;;;;;;;;;;;;;6031958;23;8711;-85
2022/07/24 02:59:03;;;;;;;;;;;;;;;;;;6032628;23;8424;-85
2022/07/24 03:01:28;;;;;;;;;;;;;;;;;;6008836;23;7254;-85
2022/07/24 03:03:53;;;;;;;;;;;;;;;;;;6031852;23;8436;-86
2022/07/24 03:06:19;;;;;;;;;;;;;;;;;;6031955;23;7117;-86
2022/07/24 03:08:45;;;;;;;;;;;;;;;;;;6031327;23;6973;-85
2022/07/24 03:11:11;;;;;;;;;;;;;;;;;;6031825;23;7207;-85
2022/07/24 03:13:36;;;;;;;;;;;;;;;;;;6032436;23;7140;-86
2022/07/24 03:16:03;;;;;;;;;;;;;;;;;;6031849;23;8474;-86
2022/07/24 03:18:28;;;;;;;;;;;;;;;;;;5984942;24;8344;-84
2022/07/24 03:20:54;;;;;;;;;;;;;;;;;;6031752;23;8459;-86
2022/07/24 03:23:20;;;;;;;;;;;;;;;;;;6032292;23;8416;-87
2022/07/24 03:25:46;;;;;;;;;;;;;;;;;;5984351;24;7651;-86
2022/07/24 03:28:12;;;;;;;;;;;;;;;;;;6031975;23;7132;-85
2022/07/24 03:30:38;;;;;;;;;;;;;;;;;;5984970;24;6779;-86
2022/07/24 03:33:03;;;;;;;;;;;;;;;;;;6031956;23;7452;-86
2022/07/24 03:35:29;;;;;;;;;;;;;;;;;;5984660;24;7259;-86
2022/07/24 03:37:54;;;;;;;;;;;;;;;;;;6031677;23;8513;-87
2022/07/24 03:40:20;;;;;;;;;;;;;;;;;;6031298;23;6973;-86
2022/07/24 03:42:45;;;;;;;;;;;;;;;;;;5984189;24;8319;-86
2022/07/24 03:45:11;;;;;;;;;;;;;;;;;;5984337;24;6984;-86
2022/07/24 03:47:37;;;;;;;;;;;;;;;;;;5984818;24;7013;-86
2022/07/24 03:50:03;;;;;;;;;;;;;;;;;;6031616;23;8435;-85
2022/07/24 03:52:28;;;;;;;;;;;;;;;;;;5984746;24;8234;-86
2022/07/24 03:54:55;;;;;;;;;;;;;;;;;;6031772;23;8466;-86
2022/07/24 03:57:21;;;;;;;;;;;;;;;;;;6032403;23;7002;-86
2022/07/24 03:59:46;;;;;;;;;;;;;;;;;;5984592;24;7023;-85
2022/07/24 04:02:12;;;;;;;;;;;;;;;;;;5984754;24;7151;-85
2022/07/24 04:04:38;;;;;;;;;;;;;;;;;;5984700;24;8218;-85
2022/07/24 04:07:04;;;;;;;;;;;;;;;;;;5984298;24;6998;-84
2022/07/24 04:09:29;;;;;;;;;;;;;;;;;;6031141;23;8766;-86
2022/07/24 04:11:55;;;;;;;;;;;;;;;;;;6030841;23;7091;-85
2022/07/24 04:14:20;;;;;;;;;;;;;;;;;;5984163;24;8408;-84
2022/07/24 04:16:47;;;;;;;;;;;;;;;;;;6031398;23;8680;-85
2022/07/24 04:19:12;;;;;;;;;;;;;;;;;;6032156;23;7499;-86
2022/07/24 04:21:40;;;;;;;;;;;;;;;;;;5984195;24;7167;-84
2022/07/24 04:24:05;;;;;;;;;;;;;;;;;;5984794;24;7314;-85
2022/07/24 04:26:31;;;;;;;;;;;;;;;;;;5984358;24;7126;-86
2022/07/24 04:28:56;;;;;;;;;;;;;;;;;;6031263;23;6957;-84
2022/07/24 04:31:22;;;;;;;;;;;;;;;;;;6031679;23;7017;-85
2022/07/24 04:33:47;;;;;;;;;;;;;;;;;;5984313;24;7017;-86
2022/07/24 04:36:13;;;;;;;;;;;;;;;;;;6031281;23;8323;-86
2022/07/24 04:38:38;;;;;;;;;;;;;;;;;;5983977;24;7046;-85
2022/07/24 04:41:04;;;;;;;;;;;;;;;;;;6031347;23;8332;-85
2022/07/24 04:43:30;;;;;;;;;;;;;;;;;;5983650;24;7010;-85
2022/07/24 04:45:55;;;;;;;;;;;;;;;;;;6031358;23;9004;-86
2022/07/24 04:48:22;;;;;;;;;;;;;;;;;;5984224;24;8454;-85
2022/07/24 04:50:47;;;;;;;;;;;;;;;;;;5983905;24;8848;-85
2022/07/24 04:53:13;;;;;;;;;;;;;;;;;;5984158;24;7150;-86
2022/07/24 04:55:38;;;;;;;;;;;;;;;;;;6030868;23;7044;-86
2022/07/24 04:58:04;;;;;;;;;;;;;;;;;;6031263;23;7005;-85
2022/07/24 05:00:29;;;;;;;;;;;;;;;;;;5984058;24;8466;-87
2022/07/24 05:02:55;;;;;;;;;;;;;;;;;;5984805;24;7226;-85
2022/07/24 05:05:21;;;;;;;;;;;;;;;;;;5983871;24;6833;-86
2022/07/24 05:07:46;;;;;;;;;;;;;;;;;;5984718;24;7151;-85
2022/07/24 05:10:12;;;;;;;;;;;;;;;;;;6027942;23;8587;-86
2022/07/24 05:12:40;;;;;;;;;;;;;;;;;;6031510;23;8457;-85
2022/07/24 05:15:06;;;;;;;;;;;;;;;;;;5983322;24;8423;-85
2022/07/24 05:17:33;;;;;;;;;;;;;;;;;;5983837;24;8425;-85
2022/07/24 05:19:58;;;;;;;;;;;;;;;;;;5983277;24;7116;-84
2022/07/24 05:22:24;;;;;;;;;;;;;;;;;;6031518;23;6810;-85
2022/07/24 05:24:49;;;;;;;;;;;;;;;;;;6031409;23;8373;-85
2022/07/24 05:27:15;;;;;;;;;;;;;;;;;;6031369;23;6986;-85
2022/07/24 05:29:41;;;;;;;;;;;;;;;;;;6030432;23;7339;-85
2022/07/24 05:32:06;;;;;;;;;;;;;;;;;;6007404;23;6936;-85
2022/07/24 05:34:32;;;;;;;;;;;;;;;;;;6030606;23;7416;-85
2022/07/24 05:36:57;;;;;;;;;;;;;;;;;;6030364;23;7045;-86
2022/07/24 05:39:23;;;;;;;;;;;;;;;;;;6029510;23;8044;-85
2022/07/24 05:41:48;;;;;;;;;;;;;;;;;;6029995;23;8739;-85
2022/07/24 05:44:14;;;;;;;;;;;;;;;;;;6006895;23;8665;-86
2022/07/24 05:46:39;;;;;;;;;;;;;;;;;;6029905;23;9192;-85
2022/07/24 05:49:04;;;;;;;;;;;;;;;;;;6030232;23;7119;-84
2022/07/24 05:51:30;;;;;;;;;;;;;;;;;;6030296;23;8367;-85
2022/07/24 05:53:55;;;;;;;;;;;;;;;;;;6030650;23;7238;-86
2022/07/24 05:56:21;;;;;;;;;;;;;;;;;;6031748;23;8663;-85
2022/07/24 05:58:46;;;;;;;;;;;;;;;;;;6032603;23;7216;-84
2022/07/24 06:01:12;;;;;;;;;;;;;;;;;;6032781;23;7007;-83
2022/07/24 06:03:37;;;;;;;;;;;;;;;;;;6031765;23;7051;-84
2022/07/24 06:06:04;;;;;;;;;;;;;;;;;;6038725;23;8438;-77
2022/07/24 06:08:29;;;;;;;;;;;;;;;;;;5998951;24;7125;-77
2022/07/24 06:10:55;;;;;;;;;;;;;;;;;;6043622;23;7158;-82
2022/07/24 06:13:20;;;;;;;;;;;;;;;;;;5992738;24;7299;-86
2022/07/24 06:15:46;;;;;;;;;;;;;;;;;;6031980;23;7218;-84
2022/07/24 06:18:11;;;;;;;;;;;;;;;;;;5985768;24;6824;-84
2022/07/24 06:20:37;;;;;;;;;;;;;;;;;;6032036;23;8797;-85
2022/07/24 06:23:02;;;;;;;;;;;;;;;;;;6032327;23;8442;-85
2022/07/24 06:25:28;;;;;;;;;;;;;;;;;;6032068;23;7153;-86
2022/07/24 06:27:53;;;;;;;;;;;;;;;;;;6032154;23;8401;-84
2022/07/24 06:30:21;;;;;;;;;;;;;;;;;;6032462;23;8786;-86
2022/07/24 06:32:47;;;;;;;;;;;;;;;;;;5985195;24;7154;-86
2022/07/24 06:35:13;;;;;;;;;;;;;;;;;;5984604;24;6933;-84
2022/07/24 06:37:39;;;;;;;;;;;;;;;;;;5985485;24;6993;-85
2022/07/24 06:40:05;;;;;;;;;;;;;;;;;;5984574;24;7153;-85
2022/07/24 06:42:31;;;;;;;;;;;;;;;;;;5985268;24;6834;-84
2022/07/24 06:44:57;;;;;;;;;;;;;;;;;;5984773;24;8271;-85
2022/07/24 06:47:23;;;;;;;;;;;;;;;;;;5984787;24;8663;-84
2022/07/24 06:49:49;;;;;;;;;;;;;;;;;;6032103;23;7423;-84
2022/07/24 06:52:14;;;;;;;;;;;;;;;;;;6032104;23;8420;-85
2022/07/24 06:54:41;;;;;;;;;;;;;;;;;;6032913;23;7454;-82
2022/07/24 06:57:07;;;;;;;;;;;;;;;;;;5984482;24;7170;-84
2022/07/24 06:59:32;;;;;;;;;;;;;;;;;;6032478;23;8792;-85
2022/07/24 07:01:58;;;;;;;;;;;;;;;;;;6008221;23;8415;-85
2022/07/24 07:04:23;;;;;;;;;;;;;;;;;;6030717;23;7135;-86
2022/07/24 07:06:49;;;;;;;;;;;;;;;;;;6031822;23;9073;-85
2022/07/24 07:09:14;;;;;;;;;;;;;;;;;;5984195;24;8386;-86
2022/07/24 07:11:40;;;;;;;;;;;;;;;;;;6031993;23;8411;-85
2022/07/24 07:14:05;;;;;;;;;;;;;;;;;;6032155;23;7101;-85
2022/07/24 07:16:30;;;;;;;;;;;;;;;;;;6031328;23;8445;-85
2022/07/24 07:18:57;;;;;;;;;;;;;;;;;;6033298;23;8443;-84
2022/07/24 07:21:22;;;;;;;;;;;;;;;;;;5984825;24;8412;-85
2022/07/24 07:23:48;;;;;;;;;;;;;;;;;;6031850;23;8943;-85
2022/07/24 07:26:13;;;;;;;;;;;;;;;;;;6032442;23;8440;-85
2022/07/24 07:28:39;;;;;;;;;;;;;;;;;;5985163;24;8458;-83
2022/07/24 07:31:04;;;;;;;;;;;;;;;;;;5983698;24;8405;-84
2022/07/24 07:33:30;;;;;;;;;;;;;;;;;;6031478;23;8358;-86
2022/07/24 07:35:56;;;;;;;;;;;;;;;;;;5984249;24;8381;-82
2022/07/24 07:38:22;;;;;;;;;;;;;;;;;;5984211;24;7085;-84
2022/07/24 07:40:47;;;;;;;;;;;;;;;;;;6031214;23;8807;-83
2022/07/24 07:43:12;;;;;;;;;;;;;;;;;;6031254;23;8531;-85
2022/07/24 07:45:38;;;;;;;;;;;;;;;;;;6031776;23;8694;-86
2022/07/24 07:48:04;;;;;;;;;;;;;;;;;;6032476;23;8287;-85
2022/07/24 07:50:29;;;;;;;;;;;;;;;;;;5984532;24;8626;-83
2022/07/24 07:52:55;;;;;;;;;;;;;;;;;;6031088;23;7146;-84
2022/07/24 07:55:20;;;;;;;;;;;;;;;;;;5978651;24;7426;-85
2022/07/24 07:57:46;;;;;;;;;;;;;;;;;;6028216;23;8621;-83
2022/07/24 08:00:12;;;;;;;;;;;;;;;;;;5981058;24;8608;-86
2022/07/24 08:02:37;;;;;;;;;;;;;;;;;;5981626;24;7874;-86
2022/07/24 08:05:03;;;;;;;;;;;;;;;;;;5980982;24;8373;-85
2022/07/24 08:07:29;;;;;;;;;;;;;;;;;;5984155;24;8599;-85
2022/07/24 08:09:54;;;;;;;;;;;;;;;;;;5992197;24;8800;-78
2022/07/24 08:12:20;;;;;;;;;;;;;;;;;;6040764;23;8432;-78
2022/07/24 08:14:45;;;;;;;;;;;;;;;;;;6040579;23;8504;-77
2022/07/24 08:17:11;;;;;;;;;;;;;;;;;;6041891;23;8808;-77
2022/07/24 08:19:37;;;;;;;;;;;;;;;;;;5991541;24;8721;-77
2022/07/24 08:22:04;;;;;;;;;;;;;;;;;;6039180;23;8358;-78
2022/07/24 08:24:32;;;;;;;;;;;;;;;;;;6030930;23;8617;-78
2022/07/24 08:26:57;;;;;;;;;;;;;;;;;;6027069;23;7038;-77
2022/07/24 08:29:24;;;;;;;;;;;;;;;;;;5979632;24;8679;-77
2022/07/24 08:31:49;;;;;;;;;;;;;;;;;;5979140;24;8813;-78
2022/07/24 08:34:15;;;;;;;;;;;;;;;;;;6026902;23;8500;-76
2022/07/24 08:36:41;;;;;;;;;;;;;;;;;;6027541;23;8694;-77
2022/07/24 08:39:06;;;;;;;;;;;;;;;;;;5981032;24;8638;-79
2022/07/24 08:41:35;;;;;;;;;;;;;;;;;;6026976;23;8453;-77
2022/07/24 08:44:03;;;;;;;;;;;;;;;;;;6031584;23;8423;-78
2022/07/24 08:46:29;;;;;;;;;;;;;;;;;;5994685;24;7368;-79
2022/07/24 08:48:54;;;;;;;;;;;;;;;;;;5992218;24;7237;-85
2022/07/24 08:51:21;;;;;;;;;;;;;;;;;;5984483;24;8467;-83
2022/07/24 08:53:49;;;;;;;;;;;;;;;;;;5992583;24;8900;-76
2022/07/24 08:56:16;;;;;;;;;;;;;;;;;;6043806;23;7205;-83
2022/07/24 08:58:41;;;;;;;;;;;;;;;;;;5988111;24;8417;-84
2022/07/24 09:01:08;;;;;;;;;;;;;;;;;;6040343;23;8508;-84
2022/07/24 09:03:46;;;;;;;;;;;;;;;;;;5994232;24;8523;-75
2022/07/24 09:06:13;;;;;;;;;;;;;;;;;;5993647;24;6983;-79
2022/07/24 09:08:39;;;;;;;;;;;;;;;;;;5987303;24;6836;-83
2022/07/24 09:11:06;;;;;;;;;;;;;;;;;;5989937;24;8527;-76
2022/07/24 09:16:22;;;;;;;;;;;;;;;;;;5965748;23;7211;-77
2022/07/24 09:18:50;;;;;;;;;;;;;;;;;;5994187;24;8509;-77
2022/07/24 09:21:17;;;;;;;;;;;;;;;;;;5981937;24;8609;-83
2022/07/24 09:23:43;;;;;;;;;;;;;;;;;;5982701;24;7083;-85
2022/07/24 09:26:09;;;;;;;;;;;;;;;;;;5982487;24;8448;-83
2022/07/24 09:28:48;;;;;;;;;;;;;;;;;;5982241;24;9443;-83
2022/07/24 09:31:14;;;;;;;;;;;;;;;;;;5981739;24;7448;-82
2022/07/24 09:33:39;;;;;;;;;;;;;;;;;;6029693;23;9754;-82
2022/07/24 09:36:11;;;;;;;;;;;;;;;;;;6029064;23;8457;-83
2022/07/24 09:38:37;;;;;;;;;;;;;;;;;;5982171;24;7290;-85
2022/07/24 09:41:02;;;;;;;;;;;;;;;;;;6029741;23;7149;-85
2022/07/24 09:43:30;;;;;;;;;;;;;;;;;;5984067;24;8350;-86
2022/07/24 09:45:57;;;;;;;;;;;;;;;;;;5984713;24;7233;-85
2022/07/24 09:48:46;;;;;;;;;;;;;;;;;;5984261;24;7040;-86
2022/07/24 09:51:16;;;;;;;;;;;;;;;;;;5995653;23;8459;-83
2022/07/24 09:53:43;;;;;;;;;;;;;;;;;;5983739;24;8754;-83
2022/07/24 09:56:10;;;;;;;;;;;;;;;;;;5983588;24;7254;-86
2022/07/24 09:58:37;;;;;;;;;;;;;;;;;;5984451;24;8491;-86
2022/07/24 10:01:04;;;;;;;;;;;;;;;;;;5983085;24;8736;-83
2022/07/24 10:03:31;;;;;;;;;;;;;;;;;;5984409;24;8461;-83
2022/07/24 10:05:59;;;;;;;;;;;;;;;;;;5984409;24;8528;-85
2022/07/24 10:08:26;;;;;;;;;;;;;;;;;;5984796;24;8461;-87
2022/07/24 10:10:51;;;;;;;;;;;;;;;;;;5984749;24;7091;-86
2022/07/24 10:13:18;;;;;;;;;;;;;;;;;;5985378;24;8791;-85
2022/07/24 10:16:04;;;;;;;;;;;;;;;;;;5986346;24;9447;-87
2022/07/24 10:18:44;;;;;;;;;;;;;;;;;;5984874;24;8861;-85
2022/07/24 10:21:14;;;;;;;;;;;;;;;;;;5984864;24;8941;-84
2022/07/24 10:24:03;;;;;;;;;;;;;;;;;;5985102;24;8502;-85
2022/07/24 10:26:34;;;;;;;;;;;;;;;;;;5995139;23;8740;-85
2022/07/24 10:29:07;;;;;;;;;;;;;;;;;;5985404;24;8411;-85
2022/07/24 10:31:36;;;;;;;;;;;;;;;;;;5984989;24;8369;-84
2022/07/24 10:34:05;;;;;;;;;;;;;;;;;;5983994;24;8405;-84
2022/07/24 10:36:36;;;;;;;;;;;;;;;;;;5984727;24;8450;-85
2022/07/24 10:39:12;;;;;;;;;;;;;;;;;;5984484;24;7216;-85
2022/07/24 10:41:38;;;;;;;;;;;;;;;;;;5984947;24;8492;-85
2022/07/24 10:44:14;;;;;;;;;;;;;;;;;;6031146;23;8873;-85
2022/07/24 10:46:59;;;;;;;;;;;;;;;;;;5985054;24;7103;-85
2022/07/24 10:49:46;;;;;;;;;;;;;;;;;;5984464;24;7100;-86
2022/07/24 10:52:20;;;;;;;;;;;;;;;;;;5986008;24;7924;-85
2022/07/24 10:54:46;;;;;;;;;;;;;;;;;;5985120;24;8834;-85
2022/07/24 10:57:12;;;;;;;;;;;;;;;;;;5984638;24;8436;-86
2022/07/24 10:59:41;;;;;;;;;;;;;;;;;;6007900;23;8899;-85
2022/07/24 11:02:28;;;;;;;;;;;;;;;;;;5985023;24;7093;-85
2022/07/24 11:05:12;;;;;;;;;;;;;;;;;;5984231;23;8487;-86
2022/07/24 11:07:37;;;;;;;;;;;;;;;;;;5984202;24;8474;-84
2022/07/24 11:10:07;;;;;;;;;;;;;;;;;;6031310;23;8750;-84
2022/07/24 11:12:44;;;;;;;;;;;;;;;;;;5984621;24;8388;-85
2022/07/24 11:17:54;;;;;;;;;;;;;;;;;;5985670;24;6860;-86
2022/07/24 11:20:22;;;;;;;;;;;;;;;;;;5984680;24;9437;-85
2022/07/24 11:22:54;;;;;;;;;;;;;;;;;;5984445;24;8721;-84
2022/07/24 11:25:20;;;;;;;;;;;;;;;;;;5982092;24;8540;-84
2022/07/24 11:27:45;;;;;;;;;;;;;;;;;;5982798;24;7985;-85
2022/07/24 11:30:12;;;;;;;;;;;;;;;;;;5984275;24;9377;-86
2022/07/24 11:32:40;;;;;;;;;;;;;;;;;;5984661;24;8830;-85
2022/07/24 11:35:08;;;;;;;;;;;;;;;;;;5984137;24;9029;-85
2022/07/24 11:37:38;;;;;;;;;;;;;;;;;;5984084;24;8976;-85
2022/07/24 11:40:06;;;;;;;;;;;;;;;;;;5985191;24;8634;-85
2022/07/24 11:42:33;;;;;;;;;;;;;;;;;;5984214;24;9176;-85
2022/07/24 11:45:00;;;;;;;;;;;;;;;;;;5984087;24;7237;-86
2022/07/24 11:47:28;;;;;;;;;;;;;;;;;;5984011;24;8929;-85
2022/07/24 11:50:00;;;;;;;;;;;;;;;;;;5984086;24;8573;-85
2022/07/24 11:52:30;;;;;;;;;;;;;;;;;;5984741;24;8903;-84
2022/07/24 11:54:58;;;;;;;;;;;;;;;;;;5984051;24;7236;-85
2022/07/24 11:57:29;;;;;;;;;;;;;;;;;;5984472;24;7086;-85
2022/07/24 11:59:55;;;;;;;;;;;;;;;;;;5984449;24;8522;-87
2022/07/24 12:02:22;;;;;;;;;;;;;;;;;;5984124;24;8797;-86
2022/07/24 12:04:49;;;;;;;;;;;;;;;;;;5983879;24;8494;-87
2022/07/24 12:07:16;;;;;;;;;;;;;;;;;;5983896;24;8802;-87
2022/07/24 12:09:50;;;;;;;;;;;;;;;;;;5984358;24;8512;-87
2022/07/24 12:12:21;;;;;;;;;;;;;;;;;;5984263;24;7248;-87
2022/07/24 12:14:47;;;;;;;;;;;;;;;;;;5983800;24;7142;-86
2022/07/24 12:17:13;;;;;;;;;;;;;;;;;;5983723;24;8530;-88
2022/07/24 12:19:38;;;;;;;;;;;;;;;;;;5983919;24;8599;-87
2022/07/24 12:22:04;;;;;;;;;;;;;;;;;;6030880;23;8661;-87
2022/07/24 12:24:31;;;;;;;;;;;;;;;;;;5983776;24;8447;-88
2022/07/24 12:26:58;;;;;;;;;;;;;;;;;;5983727;24;9392;-87
2022/07/24 12:29:25;;;;;;;;;;;;;;;;;;5984286;24;8519;-87
2022/07/24 12:32:13;;;;;;;;;;;;;;;;;;5978889;24;8538;-85
2022/07/24 12:34:46;;;;;;;;;;;;;;;;;;5982834;24;8831;-85
2022/07/24 12:37:18;;;;;;;;;;;;;;;;;;5982011;24;7046;-84
2022/07/24 12:39:47;;;;;;;;;;;;;;;;;;5982544;24;8881;-86
2022/07/24 12:42:13;;;;;;;;;;;;;;;;;;5979643;24;8782;-85
2022/07/24 12:44:43;;;;;;;;;;;;;;;;;;5979823;24;8767;-84
2022/07/24 12:47:09;;;;;;;;;;;;;;;;;;5979807;24;8865;-86
2022/07/24 12:49:46;;;;;;;;;;;;;;;;;;5979806;24;8546;-85
2022/07/24 12:52:19;;;;;;;;;;;;;;;;;;5980376;24;8516;-85
2022/07/24 12:54:47;;;;;;;;;;;;;;;;;;5979574;24;8721;-86
2022/07/24 12:57:13;;;;;;;;;;;;;;;;;;5980920;24;8664;-86
2022/07/24 12:59:40;;;;;;;;;;;;;;;;;;5983234;24;8933;-85
2022/07/24 13:02:10;;;;;;;;;;;;;;;;;;5987444;24;8485;-80
2022/07/24 13:04:40;;;;;;;;;;;;;;;;;;5995249;24;8784;-80
2022/07/24 13:07:07;;;;;;;;;;;;;;;;;;5995328;24;8626;-84
2022/07/24 13:09:35;;;;;;;;;;;;;;;;;;5994141;24;9004;-80
2022/07/24 13:12:00;;;;;;;;;;;;;;;;;;5990548;24;8501;-86
2022/07/24 13:14:28;;;;;;;;;;;;;;;;;;5977513;24;8496;-85
2022/07/24 13:16:54;;;;;;;;;;;;;;;;;;5981150;24;8564;-83
2022/07/24 13:19:21;;;;;;;;;;;;;;;;;;5983459;24;8657;-81
2022/07/24 13:21:47;;;;;;;;;;;;;;;;;;5982112;24;8580;-83
2022/07/24 13:24:14;;;;;;;;;;;;;;;;;;5982063;24;7231;-85
2022/07/24 13:26:41;;;;;;;;;;;;;;;;;;5981895;24;6877;-85
2022/07/24 13:29:07;;;;;;;;;;;;;;;;;;5982463;24;8789;-84
2022/07/24 13:31:33;;;;;;;;;;;;;;;;;;5985294;24;7507;-86
2022/07/24 13:33:58;;;;;;;;;;;;;;;;;;6034294;23;8490;-84
2022/07/24 13:36:24;;;;;;;;;;;;;;;;;;5988826;24;7086;-84
2022/07/24 13:38:49;;;;;;;;;;;;;;;;;;5985072;24;8523;-83
2022/07/24 13:41:18;;;;;;;;;;;;;;;;;;6031338;23;8534;-85
2022/07/24 13:43:45;;;;;;;;;;;;;;;;;;6031193;23;8894;-80
2022/07/24 13:46:10;;;;;;;;;;;;;;;;;;5983960;24;7093;-79
2022/07/24 13:48:36;;;;;;;;;;;;;;;;;;6031159;23;8535;-78
2022/07/24 13:51:01;;;;;;;;;;;;;;;;;;6031119;23;8541;-78
2022/07/24 13:53:26;;;;;;;;;;;;;;;;;;6030886;23;8537;-76
2022/07/24 13:55:52;;;;;;;;;;;;;;;;;;6032748;23;7473;-85
2022/07/24 13:58:17;;;;;;;;;;;;;;;;;;6040906;23;9622;-82
2022/07/24 14:00:43;;;;;;;;;;;;;;;;;;6039099;23;8497;-82
2022/07/24 14:03:08;;;;;;;;;;;;;;;;;;6033330;23;7397;-89
2022/07/24 14:05:34;;;;;;;;;;;;;;;;;;6030401;23;8480;-87
2022/07/24 14:07:59;;;;;;;;;;;;;;;;;;5984802;24;8567;-85
2022/07/24 14:10:25;;;;;;;;;;;;;;;;;;6038205;23;8530;-87
2022/07/24 14:12:51;;;;;;;;;;;;;;;;;;5992770;24;7285;-84
2022/07/24 14:15:17;;;;;;;;;;;;;;;;;;6038167;23;8379;-87
2022/07/24 14:17:43;;;;;;;;;;;;;;;;;;5985829;24;8566;-78
2022/07/24 14:20:10;;;;;;;;;;;;;;;;;;5984474;24;8561;-78
2022/07/24 14:22:37;;;;;;;;;;;;;;;;;;5984519;24;8439;-77
2022/07/24 14:25:04;;;;;;;;;;;;;;;;;;5984039;24;8706;-77
2022/07/24 14:27:29;;;;;;;;;;;;;;;;;;5984410;24;8543;-86
2022/07/24 14:29:55;;;;;;;;;;;;;;;;;;5985860;24;8569;-84
2022/07/24 14:32:20;;;;;;;;;;;;;;;;;;5985890;24;9346;-87
2022/07/24 14:34:46;;;;;;;;;;;;;;;;;;6032293;23;8873;-87
2022/07/24 14:37:11;;;;;;;;;;;;;;;;;;6033034;23;8494;-85
2022/07/24 14:39:38;;;;;;;;;;;;;;;;;;5985556;24;8458;-86
2022/07/24 14:42:03;;;;;;;;;;;;;;;;;;5984306;24;8808;-86
2022/07/24 14:44:29;;;;;;;;;;;;;;;;;;6030922;23;8590;-87
2022/07/24 14:46:55;;;;;;;;;;;;;;;;;;5985031;24;7217;-86
2022/07/24 14:49:20;;;;;;;;;;;;;;;;;;5988625;24;7139;-81
2022/07/24 14:51:46;;;;;;;;;;;;;;;;;;6034791;23;8767;-87
2022/07/24 14:54:12;;;;;;;;;;;;;;;;;;5985318;24;8614;-86
2022/07/24 14:56:37;;;;;;;;;;;;;;;;;;6033064;23;8667;-82
2022/07/24 14:59:03;;;;;;;;;;;;;;;;;;6038286;23;7211;-82
2022/07/24 15:01:29;;;;;;;;;;;;;;;;;;5991805;24;8356;-86
2022/07/24 15:03:54;;;;;;;;;;;;;;;;;;6038258;23;8519;-82
2022/07/24 15:06:20;;;;;;;;;;;;;;;;;;5988935;24;7102;-78
2022/07/24 15:08:45;;;;;;;;;;;;;;;;;;6037162;23;7210;-86
2022/07/24 15:11:11;;;;;;;;;;;;;;;;;;5984163;24;8475;-88
2022/07/24 15:13:37;;;;;;;;;;;;;;;;;;5984483;24;8683;-87
2022/07/24 15:16:09;;;;;;;;;;;;;;;;;;6031090;23;9192;-85
2022/07/24 15:18:35;;;;;;;;;;;;;;;;;;6031123;23;9599;-86
2022/07/24 15:21:00;;;;;;;;;;;;;;;;;;5984243;24;8546;-87
2022/07/24 15:23:26;;;;;;;;;;;;;;;;;;6031384;23;8560;-86
2022/07/24 15:25:52;;;;;;;;;;;;;;;;;;5984619;24;8938;-87
2022/07/24 15:28:17;;;;;;;;;;;;;;;;;;6031725;23;8559;-87
2022/07/24 15:30:43;;;;;;;;;;;;;;;;;;6031215;23;8606;-87
2022/07/24 15:33:08;;;;;;;;;;;;;;;;;;5984710;24;8678;-86
2022/07/24 15:35:34;;;;;;;;;;;;;;;;;;6031697;23;8491;-88
2022/07/24 15:37:59;;;;;;;;;;;;;;;;;;5984207;24;8393;-87
2022/07/24 15:40:29;;;;;;;;;;;;;;;;;;6031205;23;7214;-87
2022/07/24 15:42:55;;;;;;;;;;;;;;;;;;5979631;24;8413;-84
2022/07/24 15:45:21;;;;;;;;;;;;;;;;;;6027819;23;8615;-87
2022/07/24 15:47:46;;;;;;;;;;;;;;;;;;5981333;24;8501;-88
2022/07/24 15:50:12;;;;;;;;;;;;;;;;;;5981839;24;8965;-85
2022/07/24 15:52:37;;;;;;;;;;;;;;;;;;6027676;23;8522;-87
2022/07/24 15:55:03;;;;;;;;;;;;;;;;;;6027846;23;8735;-87
2022/07/24 15:57:28;;;;;;;;;;;;;;;;;;5980733;24;8467;-86
2022/07/24 15:59:55;;;;;;;;;;;;;;;;;;6027960;23;8594;-82
2022/07/24 16:02:22;;;;;;;;;;;;;;;;;;6029761;23;7264;-84
2022/07/24 16:04:48;;;;;;;;;;;;;;;;;;6033549;23;8533;-83
2022/07/24 16:07:15;;;;;;;;;;;;;;;;;;5982765;24;8536;-87
2022/07/24 16:09:42;;;;;;;;;;;;;;;;;;5981948;24;9211;-86
2022/07/24 16:12:07;;;;;;;;;;;;;;;;;;5982304;24;7242;-86
2022/07/24 16:14:33;;;;;;;;;;;;;;;;;;5983339;24;8492;-85
2022/07/24 16:16:58;;;;;;;;;;;;;;;;;;6030401;23;9465;-81
2022/07/24 16:19:24;;;;;;;;;;;;;;;;;;6032229;23;8688;-86
2022/07/24 16:21:50;;;;;;;;;;;;;;;;;;6028668;23;9344;-85
2022/07/24 16:24:16;;;;;;;;;;;;;;;;;;6028110;23;8490;-87
2022/07/24 16:26:41;;;;;;;;;;;;;;;;;;6028432;23;8539;-83
2022/07/24 16:29:07;;;;;;;;;;;;;;;;;;6028006;23;8536;-89
2022/07/24 16:31:32;;;;;;;;;;;;;;;;;;6028061;23;8953;-87
2022/07/24 16:33:59;;;;;;;;;;;;;;;;;;6027768;23;8665;-86
2022/07/24 16:36:24;;;;;;;;;;;;;;;;;;5981347;24;8781;-85
2022/07/24 16:38:50;;;;;;;;;;;;;;;;;;5980873;24;8540;-86
2022/07/24 16:41:16;;;;;;;;;;;;;;;;;;6029305;23;8878;-88
2022/07/24 16:43:42;;;;;;;;;;;;;;;;;;6028458;23;7240;-87
2022/07/24 16:46:07;;;;;;;;;;;;;;;;;;6029021;23;8483;-87
2022/07/24 16:48:33;;;;;;;;;;;;;;;;;;6027948;23;8693;-85
2022/07/24 16:50:59;;;;;;;;;;;;;;;;;;6028431;23;8455;-85
2022/07/24 16:53:24;;;;;;;;;;;;;;;;;;5982132;24;8666;-87
2022/07/24 16:55:50;;;;;;;;;;;;;;;;;;5983825;24;8472;-87
2022/07/24 16:58:16;;;;;;;;;;;;;;;;;;5984030;24;8606;-88
2022/07/24 17:00:41;;;;;;;;;;;;;;;;;;6030851;23;7101;-87
2022/07/24 17:03:07;;;;;;;;;;;;;;;;;;5984180;24;8636;-87
2022/07/24 17:05:32;;;;;;;;;;;;;;;;;;6033897;23;7094;-88